sensor_id;sensor_type;location;lat;lon;timestamp;temperature;humidity
3402;DHT22;1714;49.756;8.610;2023-08-06T00:06:25;16.20;1.00
3402;DHT22;1714;49.756;8.610;2023-08-06T00:17:00;16.10;1.00
3402;DHT22;1714;49.756;8.610;2023-08-06T00:27:36;16.10;1.00
3402;DHT22;1714;49.756;8.610;2023-08-06T00:38:12;16.20;1.00
3402;DHT22;1714;49.756;8.610;2023-08-06T00:48:47;16.10;1.00
3402;DHT22;1714;49.756;8.610;2023-08-06T00:59:22;16.20;1.00
3402;DHT22;1714;49.756;8.610;2023-08-06T01:20:52;16.10;1.00
3402;DHT22;1714;49.756;8.610;2023-08-06T01:31:31;16.20;1.00
3402;DHT22;1714;49.756;8.610;2023-08-06T01:42:06;16.10;1.00
3402;DHT22;1714;49.756;8.610;2023-08-06T01:52:42;16.20;1.00
3402;DHT22;1714;49.756;8.610;2023-08-06T02:03:18;16.30;1.00
3402;DHT22;1714;49.756;8.610;2023-08-06T02:13:55;16.30;1.00
3402;DHT22;1714;49.756;8.610;2023-08-06T02:24:30;16.20;1.00
3402;DHT22;1714;49.756;8.610;2023-08-06T02:35:06;16.30;1.00
3402;DHT22;1714;49.756;8.610;2023-08-06T02:45:41;16.20;1.00
3402;DHT22;1714;49.756;8.610;2023-08-06T02:56:16;16.10;1.00
3402;DHT22;1714;49.756;8.610;2023-08-06T03:07:00;16.10;1.00
3402;DHT22;1714;49.756;8.610;2023-08-06T03:17:45;16.00;1.00
3402;DHT22;1714;49.756;8.610;2023-08-06T03:28:20;16.00;1.00
3402;DHT22;1714;49.756;8.610;2023-08-06T03:38:57;16.00;1.00
3402;DHT22;1714;49.756;8.610;2023-08-06T03:49:34;16.10;1.00
3402;DHT22;1714;49.756;8.610;2023-08-06T04:00:09;16.10;1.00
3402;DHT22;1714;49.756;8.610;2023-08-06T04:10:56;15.90;1.00
3402;DHT22;1714;49.756;8.610;2023-08-06T04:21:31;15.90;1.00
3402;DHT22;1714;49.756;8.610;2023-08-06T04:32:08;15.80;1.00
3402;DHT22;1714;49.756;8.610;2023-08-06T04:42:47;15.60;1.00
3402;DHT22;1714;49.756;8.610;2023-08-06T04:53:22;15.70;1.00
3402;DHT22;1714;49.756;8.610;2023-08-06T05:03:56;15.60;1.00
3402;DHT22;1714;49.756;8.610;2023-08-06T05:14:31;15.70;1.00
3402;DHT22;1714;49.756;8.610;2023-08-06T05:25:07;15.60;1.00
3402;DHT22;1714;49.756;8.610;2023-08-06T05:35:41;15.60;1.00
3402;DHT22;1714;49.756;8.610;2023-08-06T05:46:16;15.60;1.00
3402;DHT22;1714;49.756;8.610;2023-08-06T05:56:51;15.60;1.00
3402;DHT22;1714;49.756;8.610;2023-08-06T06:07:26;15.40;1.00
3402;DHT22;1714;49.756;8.610;2023-08-06T06:18:01;15.40;1.00
3402;DHT22;1714;49.756;8.610;2023-08-06T06:28:36;15.40;1.00
3402;DHT22;1714;49.756;8.610;2023-08-06T06:39:11;15.40;1.00
3402;DHT22;1714;49.756;8.610;2023-08-06T06:49:46;15.40;1.00
3402;DHT22;1714;49.756;8.610;2023-08-06T07:00:21;15.40;1.00
3402;DHT22;1714;49.756;8.610;2023-08-06T07:11:03;15.60;1.00
3402;DHT22;1714;49.756;8.610;2023-08-06T07:21:38;15.50;1.00
3402;DHT22;1714;49.756;8.610;2023-08-06T07:32:13;15.30;1.00
3402;DHT22;1714;49.756;8.610;2023-08-06T07:42:48;15.40;1.00
3402;DHT22;1714;49.756;8.610;2023-08-06T07:53:24;15.60;1.00
3402;DHT22;1714;49.756;8.610;2023-08-06T08:04:01;15.70;1.00
3402;DHT22;1714;49.756;8.610;2023-08-06T08:14:35;15.90;1.00
3402;DHT22;1714;49.756;8.610;2023-08-06T08:25:11;16.30;1.00
3402;DHT22;1714;49.756;8.610;2023-08-06T08:35:46;17.30;1.00
3402;DHT22;1714;49.756;8.610;2023-08-06T08:46:22;17.00;1.00
3402;DHT22;1714;49.756;8.610;2023-08-06T08:56:59;17.40;1.00
3402;DHT22;1714;49.756;8.610;2023-08-06T09:07:47;17.80;1.00
3402;DHT22;1714;49.756;8.610;2023-08-06T09:18:26;17.90;1.00
3402;DHT22;1714;49.756;8.610;2023-08-06T09:29:05;17.60;1.00
3402;DHT22;1714;49.756;8.610;2023-08-06T09:39:41;17.20;1.00
3402;DHT22;1714;49.756;8.610;2023-08-06T09:50:20;17.20;1.00
3402;DHT22;1714;49.756;8.610;2023-08-06T10:00:55;17.70;1.00
3402;DHT22;1714;49.756;8.610;2023-08-06T10:11:30;17.70;1.00
3402;DHT22;1714;49.756;8.610;2023-08-06T10:22:15;17.30;1.00
3402;DHT22;1714;49.756;8.610;2023-08-06T10:32:55;17.40;1.00
3402;DHT22;1714;49.756;8.610;2023-08-06T10:43:38;17.40;1.00
3402;DHT22;1714;49.756;8.610;2023-08-06T10:54:13;17.40;1.00
3402;DHT22;1714;49.756;8.610;2023-08-06T11:04:49;16.90;1.00
3402;DHT22;1714;49.756;8.610;2023-08-06T11:15:24;16.90;1.00
3402;DHT22;1714;49.756;8.610;2023-08-06T11:25:58;16.90;1.00
3402;DHT22;1714;49.756;8.610;2023-08-06T11:36:36;17.00;1.00
3402;DHT22;1714;49.756;8.610;2023-08-06T11:47:16;16.70;1.00
3402;DHT22;1714;49.756;8.610;2023-08-06T11:57:51;16.70;1.00
3402;DHT22;1714;49.756;8.610;2023-08-06T12:08:27;16.70;1.00
3402;DHT22;1714;49.756;8.610;2023-08-06T12:19:02;16.50;1.00
3402;DHT22;1714;49.756;8.610;2023-08-06T12:29:41;16.40;1.00
3402;DHT22;1714;49.756;8.610;2023-08-06T12:40:17;16.40;1.00
3402;DHT22;1714;49.756;8.610;2023-08-06T12:51:08;16.40;1.00
3402;DHT22;1714;49.756;8.610;2023-08-06T13:01:43;16.40;1.00
3402;DHT22;1714;49.756;8.610;2023-08-06T13:12:19;16.50;1.00
3402;DHT22;1714;49.756;8.610;2023-08-06T13:22:58;16.70;1.00
3402;DHT22;1714;49.756;8.610;2023-08-06T13:33:36;16.80;1.00
3402;DHT22;1714;49.756;8.610;2023-08-06T13:44:11;16.80;1.00
3402;DHT22;1714;49.756;8.610;2023-08-06T13:54:48;16.80;1.00
3402;DHT22;1714;49.756;8.610;2023-08-06T14:05:23;16.90;1.00
3402;DHT22;1714;49.756;8.610;2023-08-06T14:15:58;16.80;1.00
3402;DHT22;1714;49.756;8.610;2023-08-06T14:26:33;16.90;1.00
3402;DHT22;1714;49.756;8.610;2023-08-06T14:37:08;17.00;1.00
3402;DHT22;1714;49.756;8.610;2023-08-06T14:47:42;17.10;1.00
3402;DHT22;1714;49.756;8.610;2023-08-06T14:58:17;16.70;1.00
3402;DHT22;1714;49.756;8.610;2023-08-06T15:08:52;16.60;1.00
3402;DHT22;1714;49.756;8.610;2023-08-06T15:19:32;16.50;1.00
3402;DHT22;1714;49.756;8.610;2023-08-06T15:30:07;16.40;1.00
3402;DHT22;1714;49.756;8.610;2023-08-06T15:40:43;16.30;1.00
3402;DHT22;1714;49.756;8.610;2023-08-06T15:51:20;16.10;1.00
3402;DHT22;1714;49.756;8.610;2023-08-06T16:01:55;15.90;1.00
3402;DHT22;1714;49.756;8.610;2023-08-06T16:12:34;15.70;1.00
3402;DHT22;1714;49.756;8.610;2023-08-06T16:23:10;15.70;1.00
3402;DHT22;1714;49.756;8.610;2023-08-06T16:33:46;15.80;1.00
3402;DHT22;1714;49.756;8.610;2023-08-06T16:44:21;15.70;1.00
3402;DHT22;1714;49.756;8.610;2023-08-06T16:54:56;15.70;1.00
3402;DHT22;1714;49.756;8.610;2023-08-06T17:05:32;15.60;1.00
3402;DHT22;1714;49.756;8.610;2023-08-06T17:16:07;15.40;1.00
3402;DHT22;1714;49.756;8.610;2023-08-06T17:26:43;15.50;1.00
3402;DHT22;1714;49.756;8.610;2023-08-06T17:37:18;15.50;1.00
3402;DHT22;1714;49.756;8.610;2023-08-06T17:47:53;15.50;1.00
3402;DHT22;1714;49.756;8.610;2023-08-06T17:58:28;15.50;1.00
3402;DHT22;1714;49.756;8.610;2023-08-06T18:09:03;15.50;1.00
3402;DHT22;1714;49.756;8.610;2023-08-06T18:19:38;15.50;1.00
3402;DHT22;1714;49.756;8.610;2023-08-06T18:30:13;15.50;1.00
3402;DHT22;1714;49.756;8.610;2023-08-06T18:40:47;15.40;1.00
3402;DHT22;1714;49.756;8.610;2023-08-06T18:51:22;15.40;1.00
3402;DHT22;1714;49.756;8.610;2023-08-06T19:01:57;15.40;1.00
3402;DHT22;1714;49.756;8.610;2023-08-06T19:12:32;15.20;1.00
3402;DHT22;1714;49.756;8.610;2023-08-06T19:23:07;15.10;1.00
3402;DHT22;1714;49.756;8.610;2023-08-06T19:33:43;15.00;1.00
3402;DHT22;1714;49.756;8.610;2023-08-06T19:44:18;14.80;1.00
3402;DHT22;1714;49.756;8.610;2023-08-06T19:54:53;14.50;1.00
3402;DHT22;1714;49.756;8.610;2023-08-06T20:05:28;14.40;1.00
3402;DHT22;1714;49.756;8.610;2023-08-06T20:16:03;14.50;1.00
3402;DHT22;1714;49.756;8.610;2023-08-06T20:26:39;14.40;1.00
3402;DHT22;1714;49.756;8.610;2023-08-06T20:37:13;14.40;1.00
3402;DHT22;1714;49.756;8.610;2023-08-06T20:47:48;14.20;1.00
3402;DHT22;1714;49.756;8.610;2023-08-06T20:58:23;14.10;1.00
3402;DHT22;1714;49.756;8.610;2023-08-06T21:08:58;14.00;1.00
3402;DHT22;1714;49.756;8.610;2023-08-06T21:19:33;14.00;1.00
3402;DHT22;1714;49.756;8.610;2023-08-06T21:30:08;13.90;1.00
3402;DHT22;1714;49.756;8.610;2023-08-06T21:40:47;13.70;1.00
3402;DHT22;1714;49.756;8.610;2023-08-06T21:51:21;14.00;1.00
3402;DHT22;1714;49.756;8.610;2023-08-06T22:01:57;13.80;1.00
3402;DHT22;1714;49.756;8.610;2023-08-06T22:12:31;14.00;1.00
3402;DHT22;1714;49.756;8.610;2023-08-06T22:23:07;14.10;1.00
3402;DHT22;1714;49.756;8.610;2023-08-06T22:33:42;14.00;1.00
3402;DHT22;1714;49.756;8.610;2023-08-06T22:44:16;14.00;1.00
3402;DHT22;1714;49.756;8.610;2023-08-06T22:54:51;13.90;1.00
3402;DHT22;1714;49.756;8.610;2023-08-06T23:05:45;13.80;1.00
3402;DHT22;1714;49.756;8.610;2023-08-06T23:16:20;13.80;1.00
3402;DHT22;1714;49.756;8.610;2023-08-06T23:26:55;13.70;1.00
3402;DHT22;1714;49.756;8.610;2023-08-06T23:37:30;13.70;1.00
3402;DHT22;1714;49.756;8.610;2023-08-06T23:48:09;13.80;1.00
3402;DHT22;1714;49.756;8.610;2023-08-06T23:58:44;13.70;1.00
